Time;durP1;ratioP1;P1;durP2;ratioP2;P2;SDS_P1;SDS_P2;PMS_P1;PMS_P2;Temp;Humidity;BMP_temperature;BMP_pressure;BME280_temperature;BME280_humidity;BME280_pressure;Samples;Min_cycle;Max_cycle;Signal;HPM_P1;HPM_P2
2023/04/28 00:02:17;;;;;;;33.92;30.73;;;7.90;99.90;;;;;;4927175;28;20509;-73
2023/04/28 00:04:44;;;;;;;34.65;31.85;;;7.90;99.90;;;;;;4929707;28;21097;-73
2023/04/28 00:07:11;;;;;;;33.40;30.60;;;7.90;99.90;;;;;;4930030;28;20586;-75
2023/04/28 00:09:38;;;;;;;34.80;31.88;;;8.00;99.90;;;;;;4902634;28;20350;-75
2023/04/28 00:12:05;;;;;;;33.72;30.92;;;8.00;99.90;;;;;;4921462;28;20267;-72
2023/04/28 00:14:32;;;;;;;34.67;31.80;;;7.90;99.90;;;;;;4918991;28;20071;-74
2023/04/28 00:16:58;;;;;;;34.58;31.67;;;8.00;99.90;;;;;;4925483;28;20070;-73
2023/04/28 00:19:25;;;;;;;34.03;31.30;;;7.90;99.90;;;;;;4918945;28;20118;-74
2023/04/28 00:21:52;;;;;;;33.78;30.98;;;7.90;99.90;;;;;;4928293;28;20059;-74
2023/04/28 00:24:19;;;;;;;35.13;31.92;;;7.80;99.90;;;;;;4936625;28;20043;-71
2023/04/28 00:26:45;;;;;;;34.05;31.05;;;7.90;99.90;;;;;;4919512;28;20047;-74
2023/04/28 00:29:12;;;;;;;33.15;30.20;;;7.90;99.90;;;;;;4907655;29;20051;-76
2023/04/28 00:31:39;;;;;;;34.30;31.50;;;7.90;99.90;;;;;;4924777;28;20082;-74
2023/04/28 00:34:06;;;;;;;34.65;31.85;;;7.90;99.90;;;;;;4907036;29;20574;-73
2023/04/28 00:36:32;;;;;;;34.08;31.02;;;7.80;99.90;;;;;;4927570;28;20419;-75
2023/04/28 00:38:59;;;;;;;34.28;31.38;;;7.80;99.90;;;;;;4912908;28;20150;-73
2023/04/28 00:41:26;;;;;;;34.20;31.20;;;7.80;99.90;;;;;;4911551;28;20453;-75
2023/04/28 00:43:53;;;;;;;36.50;33.00;;;7.80;99.90;;;;;;4932992;28;20051;-73
2023/04/28 00:46:23;;;;;;;35.67;32.22;;;7.80;99.90;;;;;;4928500;28;20516;-74
2023/04/28 00:48:50;;;;;;;35.65;32.03;;;7.80;99.90;;;;;;4922291;28;20057;-75
2023/04/28 00:51:17;;;;;;;34.78;31.85;;;7.70;99.90;;;;;;4926999;28;20044;-76
2023/04/28 00:53:44;;;;;;;34.25;30.98;;;7.70;99.90;;;;;;4906388;28;20122;-76
2023/04/28 00:56:11;;;;;;;35.63;32.25;;;7.70;99.90;;;;;;4929306;28;20209;-75
2023/04/28 00:58:38;;;;;;;36.03;32.35;;;7.70;99.90;;;;;;4905687;28;20039;-75
2023/04/28 01:01:07;;;;;;;35.72;32.10;;;7.70;99.90;;;;;;4924729;28;20047;-73
2023/04/28 01:03:36;;;;;;;34.50;31.60;;;7.70;99.90;;;;;;4906020;28;20135;-74
2023/04/28 01:06:05;;;;;;;34.97;31.88;;;7.70;99.90;;;;;;4916135;28;20051;-72
2023/04/28 01:08:34;;;;;;;34.83;31.92;;;7.70;99.90;;;;;;4921794;28;20311;-74
2023/04/28 01:11:03;;;;;;;35.45;32.38;;;7.60;99.90;;;;;;4924343;28;20055;-74
2023/04/28 01:13:57;;;;;;;37.20;33.22;;;7.70;99.90;;;;;;4920886;28;20048;-74
2023/04/28 01:16:26;;;;;;;36.35;33.00;;;7.60;99.90;;;;;;4919833;28;20728;-75
2023/04/28 01:18:54;;;;;;;35.25;32.33;;;7.60;99.90;;;;;;4905268;29;20604;-75
2023/04/28 01:21:31;;;;;;;36.38;32.90;;;7.60;99.90;;;;;;4923886;28;20050;-74
2023/04/28 01:24:01;;;;;;;36.47;33.17;;;7.60;99.90;;;;;;4923399;28;20051;-74
2023/04/28 01:26:28;;;;;;;35.08;32.15;;;7.60;99.90;;;;;;4921249;28;20047;-72
2023/04/28 01:28:54;;;;;;;35.88;32.42;;;7.60;99.90;;;;;;4921836;28;20420;-73
2023/04/28 01:31:21;;;;;;;36.88;33.47;;;7.60;99.90;;;;;;4926829;28;20527;-72
2023/04/28 01:33:48;;;;;;;35.33;32.03;;;7.60;99.90;;;;;;4926443;28;20492;-73
2023/04/28 01:36:16;;;;;;;37.38;34.03;;;7.60;99.90;;;;;;4922633;28;20440;-74
2023/04/28 01:38:42;;;;;;;37.17;33.60;;;7.60;99.90;;;;;;4909919;28;20047;-73
2023/04/28 01:41:12;;;;;;;35.15;31.98;;;7.60;99.90;;;;;;4908798;28;20036;-75
2023/04/28 01:43:38;;;;;;;38.80;34.10;;;7.60;99.90;;;;;;4914943;28;20163;-71
2023/04/28 01:46:05;;;;;;;36.60;33.35;;;7.60;99.90;;;;;;4920904;28;20482;-75
2023/04/28 01:48:32;;;;;;;35.80;32.70;;;7.60;99.90;;;;;;4926205;28;20199;-72
2023/04/28 01:50:59;;;;;;;35.72;32.42;;;7.60;99.90;;;;;;4912018;29;20071;-72
2023/04/28 01:53:25;;;;;;;35.60;32.10;;;7.60;99.90;;;;;;4921847;28;20486;-74
2023/04/28 01:55:53;;;;;;;34.63;31.67;;;7.70;99.90;;;;;;4912662;28;20361;-74
2023/04/28 01:58:20;;;;;;;37.15;33.50;;;7.60;99.90;;;;;;4931060;28;20043;-74
2023/04/28 02:00:46;;;;;;;37.08;33.47;;;7.60;99.90;;;;;;4924494;28;20447;-71
2023/04/28 02:03:14;;;;;;;37.17;33.75;;;7.70;99.90;;;;;;4923683;28;20047;-76
2023/04/28 02:05:41;;;;;;;35.78;32.65;;;7.70;99.90;;;;;;4907780;28;20444;-72
2023/04/28 02:08:08;;;;;;;36.28;32.75;;;7.60;99.90;;;;;;4933939;28;20043;-74
2023/04/28 02:10:35;;;;;;;36.45;32.85;;;7.60;99.90;;;;;;4916795;28;20043;-74
2023/04/28 02:13:01;;;;;;;36.75;33.28;;;7.60;99.90;;;;;;4930504;28;20039;-72
2023/04/28 02:15:29;;;;;;;41.65;33.92;;;7.60;99.90;;;;;;4916572;28;20054;-75
2023/04/28 02:17:56;;;;;;;35.50;32.10;;;7.70;99.90;;;;;;4940042;28;20352;-73
2023/04/28 02:20:22;;;;;;;36.83;33.50;;;7.60;99.90;;;;;;4925301;28;20547;-74
2023/04/28 02:22:50;;;;;;;36.67;33.58;;;7.60;99.90;;;;;;4923894;28;21309;-75
2023/04/28 02:25:16;;;;;;;37.00;33.65;;;7.60;99.90;;;;;;4923471;28;20478;-72
2023/04/28 02:27:43;;;;;;;36.80;33.20;;;7.60;99.90;;;;;;4911340;28;20540;-74
2023/04/28 02:30:10;;;;;;;37.58;34.30;;;7.60;99.90;;;;;;4933573;28;20040;-74
2023/04/28 02:32:37;;;;;;;37.30;33.75;;;7.60;99.90;;;;;;4918484;28;20043;-73
2023/04/28 02:35:05;;;;;;;35.47;32.30;;;7.60;99.90;;;;;;4921375;28;20058;-75
2023/04/28 02:37:32;;;;;;;37.92;34.08;;;7.70;99.90;;;;;;4900322;28;20050;-72
2023/04/28 02:39:59;;;;;;;35.67;32.28;;;7.60;99.90;;;;;;4934741;28;20146;-75
2023/04/28 02:42:25;;;;;;;36.78;32.90;;;7.60;99.90;;;;;;4924926;28;20062;-71
2023/04/28 02:44:54;;;;;;;37.47;33.60;;;7.70;99.90;;;;;;4921045;28;20067;-74
2023/04/28 02:47:21;;;;;;;36.10;32.70;;;7.70;99.90;;;;;;4929271;28;20047;-71
2023/04/28 02:49:48;;;;;;;37.45;33.80;;;7.60;99.90;;;;;;4911200;28;20353;-75
2023/04/28 02:52:15;;;;;;;36.95;33.40;;;7.70;99.90;;;;;;4925885;28;20050;-73
2023/04/28 02:54:42;;;;;;;35.67;32.35;;;7.60;99.90;;;;;;4917778;28;20552;-74
2023/04/28 02:57:09;;;;;;;35.78;32.17;;;7.60;99.90;;;;;;4930129;28;20058;-75
2023/04/28 02:59:36;;;;;;;36.13;32.67;;;7.60;99.90;;;;;;4925809;28;20519;-73
2023/04/28 03:02:03;;;;;;;36.75;33.25;;;7.50;99.90;;;;;;4930594;28;20074;-72
2023/04/28 03:04:30;;;;;;;36.38;33.15;;;7.60;99.90;;;;;;4940467;28;20050;-71
2023/04/28 03:06:57;;;;;;;36.35;32.67;;;7.50;99.90;;;;;;4943898;28;20045;-73
2023/04/28 03:09:24;;;;;;;35.92;32.47;;;7.60;99.90;;;;;;4938366;28;20143;-72
2023/04/28 03:11:51;;;;;;;36.15;32.75;;;7.60;99.90;;;;;;4914719;28;20269;-73
2023/04/28 03:14:18;;;;;;;35.85;31.77;;;7.60;99.90;;;;;;4911827;28;20058;-74
2023/04/28 03:16:45;;;;;;;35.67;32.15;;;7.60;99.90;;;;;;4909778;28;20067;-74
2023/04/28 03:19:13;;;;;;;35.92;32.42;;;7.60;99.90;;;;;;4931842;28;20047;-73
2023/04/28 03:21:40;;;;;;;36.50;33.30;;;7.60;99.90;;;;;;4923067;28;20508;-72
2023/04/28 03:24:07;;;;;;;35.50;32.28;;;7.50;99.90;;;;;;4921767;28;20039;-75
2023/04/28 03:26:35;;;;;;;36.33;32.90;;;7.50;99.90;;;;;;4912442;28;20055;-74
2023/04/28 03:29:02;;;;;;;37.78;33.70;;;7.50;99.90;;;;;;4926637;28;20515;-73
2023/04/28 03:31:30;;;;;;;36.63;32.92;;;7.50;99.90;;;;;;4923104;28;20051;-75
2023/04/28 03:33:58;;;;;;;36.33;32.47;;;7.60;99.90;;;;;;4909158;28;20410;-72
2023/04/28 03:36:26;;;;;;;36.42;33.03;;;7.60;99.90;;;;;;4910102;29;20067;-72
2023/04/28 03:38:55;;;;;;;37.35;33.85;;;7.70;99.90;;;;;;4899430;28;20078;-72
2023/04/28 03:41:22;;;;;;;36.42;32.60;;;7.70;99.90;;;;;;4914298;28;20050;-75
2023/04/28 03:44:09;;;;;;;37.40;33.45;;;7.60;99.90;;;;;;4921305;28;20081;-73
2023/04/28 03:46:44;;;;;;;38.03;34.30;;;7.60;99.90;;;;;;4916319;28;20059;-75
2023/04/28 03:49:11;;;;;;;37.63;34.22;;;7.60;99.90;;;;;;4927397;28;20055;-74
2023/04/28 03:51:38;;;;;;;36.95;33.60;;;7.70;99.90;;;;;;4903116;28;20043;-74
2023/04/28 03:54:05;;;;;;;38.42;34.53;;;7.70;99.90;;;;;;4932628;28;20035;-73
2023/04/28 03:56:33;;;;;;;37.15;33.70;;;7.70;99.90;;;;;;4925534;28;20054;-71
2023/04/28 03:59:01;;;;;;;36.88;33.30;;;7.60;99.90;;;;;;4915522;28;20042;-73
2023/04/28 04:01:28;;;;;;;36.30;32.90;;;7.60;99.90;;;;;;4920392;28;20077;-70
2023/04/28 04:03:55;;;;;;;36.45;32.65;;;7.60;99.90;;;;;;4922343;28;20416;-73
2023/04/28 04:06:22;;;;;;;38.00;34.33;;;7.60;99.90;;;;;;4922600;28;20141;-73
2023/04/28 04:08:50;;;;;;;36.85;33.05;;;7.60;99.90;;;;;;4909121;28;20043;-71
2023/04/28 04:11:16;;;;;;;37.33;33.30;;;7.60;99.90;;;;;;4922084;28;20556;-72
2023/04/28 04:13:43;;;;;;;38.05;34.53;;;7.60;99.90;;;;;;4926572;28;20091;-73
2023/04/28 04:16:16;;;;;;;37.50;33.83;;;7.50;99.90;;;;;;4921062;28;20044;-73
2023/04/28 04:18:43;;;;;;;49.20;45.10;;;7.50;99.90;;;;;;4916549;28;20043;-71
2023/04/28 04:21:22;;;;;;;38.17;34.42;;;7.50;99.90;;;;;;4928372;28;20419;-74
2023/04/28 04:23:50;;;;;;;36.78;33.25;;;7.60;99.90;;;;;;4925067;28;20218;-72
2023/04/28 04:26:17;;;;;;;38.75;34.75;;;7.60;99.90;;;;;;4928246;28;20046;-71
2023/04/28 04:28:45;;;;;;;38.95;35.30;;;7.50;99.90;;;;;;4919298;28;20073;-72
2023/04/28 04:31:12;;;;;;;38.60;34.83;;;7.60;99.90;;;;;;4938824;28;20043;-71
2023/04/28 04:33:39;;;;;;;39.70;35.65;;;7.60;99.90;;;;;;4924922;28;20138;-71
2023/04/28 04:36:06;;;;;;;37.78;34.20;;;7.60;99.90;;;;;;4927200;28;20042;-72
2023/04/28 04:38:33;;;;;;;37.70;33.97;;;7.70;99.90;;;;;;4933158;28;20054;-73
2023/04/28 04:41:09;;;;;;;39.15;35.15;;;7.60;99.90;;;;;;4932851;28;20086;-73
2023/04/28 04:43:36;;;;;;;37.13;33.63;;;7.70;99.90;;;;;;4927170;28;20532;-72
2023/04/28 04:46:03;;;;;;;37.58;33.78;;;7.70;99.90;;;;;;4906053;29;20223;-75
2023/04/28 04:48:31;;;;;;;37.92;34.10;;;7.70;99.90;;;;;;4912642;28;20047;-72
2023/04/28 04:50:57;;;;;;;48.85;44.53;;;7.70;99.90;;;;;;4901912;28;20085;-72
2023/04/28 04:53:25;;;;;;;48.72;44.90;;;7.60;99.90;;;;;;4913256;28;20043;-72
2023/04/28 04:55:54;;;;;;;48.97;45.00;;;7.50;99.90;;;;;;4930319;28;20046;-71
2023/04/28 04:58:21;;;;;;;51.70;47.10;;;7.50;99.90;;;;;;4916288;28;20058;-71
2023/04/28 05:01:06;;;;;;;;;;;7.60;99.90;;;;;;4937037;28;20062;-73
2023/04/28 05:03:33;;;;;;;49.85;45.03;;;7.60;99.90;;;;;;4930927;28;19923;-73
2023/04/28 05:06:01;;;;;;;49.10;44.70;;;7.50;99.90;;;;;;4927414;28;20170;-73
2023/04/28 05:08:35;;;;;;;49.50;44.83;;;7.50;99.90;;;;;;4921079;28;21466;-73
2023/04/28 05:11:02;;;;;;;52.25;47.03;;;7.30;99.90;;;;;;4933986;28;20043;-73
2023/04/28 05:13:29;;;;;;;49.83;45.33;;;7.30;99.90;;;;;;4909543;29;20519;-71
2023/04/28 05:16:00;;;;;;;47.03;42.80;;;7.30;99.90;;;;;;4967639;23;20042;-72
2023/04/28 05:18:38;;;;;;;48.63;44.60;;;7.40;99.90;;;;;;4968805;28;20042;-71
2023/04/28 05:21:05;;;;;;;46.33;42.15;;;7.40;99.90;;;;;;4975935;28;20054;-72
2023/04/28 05:23:32;;;;;;;44.70;41.15;;;7.40;99.90;;;;;;4981514;28;20323;-73
2023/04/28 05:25:59;;;;;;;45.83;41.85;;;7.40;99.90;;;;;;4967376;28;20714;-72
2023/04/28 05:28:26;;;;;;;46.35;42.10;;;7.40;99.90;;;;;;4979306;28;20043;-74
2023/04/28 05:30:54;;;;;;;45.97;41.58;;;7.40;99.90;;;;;;4977662;28;20034;-72
2023/04/28 05:33:22;;;;;;;45.22;41.13;;;7.30;99.90;;;;;;4977096;28;20054;-73
2023/04/28 05:35:49;;;;;;;46.20;42.45;;;7.30;99.90;;;;;;4977771;28;20037;-74
2023/04/28 05:38:16;;;;;;;43.05;39.28;;;7.30;99.90;;;;;;4985486;28;20057;-72
2023/04/28 05:40:44;;;;;;;44.05;39.92;;;7.20;99.90;;;;;;4958111;28;20077;-73
2023/04/28 05:43:11;;;;;;;42.17;38.42;;;7.20;99.90;;;;;;4973450;28;20287;-73
2023/04/28 05:45:38;;;;;;;42.45;38.38;;;7.30;99.90;;;;;;4980769;28;20050;-72
2023/04/28 05:48:05;;;;;;;44.20;40.17;;;7.30;99.90;;;;;;4975971;28;20104;-74
2023/04/28 05:50:32;;;;;;;43.20;39.28;;;7.30;99.90;;;;;;4978383;28;20034;-74
2023/04/28 05:53:00;;;;;;;44.47;40.58;;;7.30;99.90;;;;;;4977667;28;20038;-73
2023/04/28 05:55:28;;;;;;;43.63;39.85;;;7.40;99.90;;;;;;4976379;28;20074;-73
2023/04/28 05:57:55;;;;;;;38.28;35.15;;;7.40;99.90;;;;;;4976002;28;20042;-72
2023/04/28 06:00:22;;;;;;;42.70;38.63;;;7.40;99.90;;;;;;4974043;28;20050;-72
2023/04/28 06:02:52;;;;;;;40.75;36.95;;;7.50;99.90;;;;;;4963524;28;20141;-74
2023/04/28 06:05:20;;;;;;;42.65;38.55;;;7.60;99.90;;;;;;4970846;28;20137;-74
2023/04/28 06:07:49;;;;;;;39.33;35.50;;;7.60;99.90;;;;;;4979594;28;20042;-73
2023/04/28 06:10:18;;;;;;;42.22;38.33;;;7.60;99.90;;;;;;4976424;28;20081;-74
2023/04/28 06:12:45;;;;;;;41.17;37.60;;;7.80;99.90;;;;;;4981363;28;20132;-74
2023/04/28 06:15:11;;;;;;;41.08;37.47;;;7.80;99.90;;;;;;4976283;28;20113;-74
2023/04/28 06:17:38;;;;;;;41.08;37.47;;;7.80;99.90;;;;;;4966181;28;20065;-74
2023/04/28 06:20:06;;;;;;;42.85;39.25;;;7.90;99.90;;;;;;4979443;28;20038;-73
2023/04/28 06:22:33;;;;;;;41.88;38.08;;;8.00;99.90;;;;;;4981066;28;20034;-74
2023/04/28 06:25:00;;;;;;;40.13;36.63;;;8.10;99.90;;;;;;4976833;28;20084;-75
2023/04/28 06:27:33;;;;;;;39.95;36.35;;;8.00;99.90;;;;;;4963677;28;20057;-74
2023/04/28 06:29:59;;;;;;;41.33;37.95;;;7.90;99.90;;;;;;4979296;28;20045;-73
2023/04/28 06:32:26;;;;;;;41.20;37.17;;;8.00;99.90;;;;;;4986013;28;20061;-73
2023/04/28 06:34:53;;;;;;;41.17;37.33;;;8.00;99.90;;;;;;4981308;28;20050;-74
2023/04/28 06:37:22;;;;;;;41.22;37.20;;;8.10;99.90;;;;;;4974335;28;20255;-74
2023/04/28 06:39:49;;;;;;;41.03;37.63;;;8.30;99.90;;;;;;4956102;28;20038;-74
2023/04/28 06:42:17;;;;;;;39.90;36.70;;;8.30;99.90;;;;;;4981525;28;20061;-73
2023/04/28 06:44:51;;;;;;;37.75;34.63;;;8.50;99.90;;;;;;4977818;28;20490;-74
2023/04/28 06:47:18;;;;;;;42.17;38.38;;;8.40;99.90;;;;;;4979892;28;20080;-74
2023/04/28 06:49:46;;;;;;;39.38;35.92;;;8.30;99.90;;;;;;4972182;28;20256;-73
2023/04/28 06:52:13;;;;;;;41.08;37.10;;;8.40;99.90;;;;;;4977949;28;20673;-72
2023/04/28 06:54:40;;;;;;;39.28;35.60;;;8.50;99.90;;;;;;4990043;28;20046;-73
2023/04/28 06:57:07;;;;;;;39.40;35.60;;;8.40;99.90;;;;;;4981440;28;20137;-74
2023/04/28 06:59:34;;;;;;;37.95;34.22;;;8.40;99.90;;;;;;4983900;28;20054;-74
2023/04/28 07:02:01;;;;;;;36.42;32.88;;;8.40;99.90;;;;;;4973566;28;20081;-73
2023/04/28 07:04:27;;;;;;;37.13;33.78;;;8.20;99.90;;;;;;4979545;28;20129;-74
2023/04/28 07:06:54;;;;;;;37.38;33.50;;;8.20;99.90;;;;;;4984872;28;20136;-73
2023/04/28 07:09:21;;;;;;;37.90;33.95;;;8.20;99.90;;;;;;4987887;28;20042;-73
2023/04/28 07:11:48;;;;;;;36.75;33.33;;;8.20;99.90;;;;;;4973326;28;20034;-74
2023/04/28 07:14:15;;;;;;;36.47;31.90;;;8.20;99.90;;;;;;4983776;28;20047;-73
2023/04/28 07:16:42;;;;;;;36.42;32.90;;;8.30;99.90;;;;;;4981626;28;20029;-74
2023/04/28 07:19:09;;;;;;;35.40;31.70;;;8.40;99.90;;;;;;4978519;28;20046;-74
2023/04/28 07:21:36;;;;;;;34.38;31.38;;;8.50;99.90;;;;;;4983520;28;20461;-73
2023/04/28 07:24:03;;;;;;;37.13;33.70;;;8.70;99.90;;;;;;4976646;28;20046;-73
2023/04/28 07:26:29;;;;;;;35.50;32.38;;;8.70;99.90;;;;;;4990571;28;20046;-73
2023/04/28 07:28:56;;;;;;;36.60;33.25;;;8.80;99.90;;;;;;4998600;28;20038;-73
2023/04/28 07:31:23;;;;;;;37.13;33.72;;;8.80;99.90;;;;;;5002546;28;20066;-73
2023/04/28 07:33:50;;;;;;;36.47;33.55;;;9.00;99.90;;;;;;4979501;28;20105;-73
2023/04/28 07:36:17;;;;;;;36.35;32.75;;;9.00;99.90;;;;;;4983140;28;20134;-73
2023/04/28 07:38:44;;;;;;;38.05;34.72;;;9.10;99.90;;;;;;4984533;28;20116;-72
2023/04/28 07:41:11;;;;;;;37.03;33.92;;;9.00;99.90;;;;;;4982302;28;20038;-72
2023/04/28 07:43:38;;;;;;;36.20;32.92;;;9.10;99.90;;;;;;4984780;28;20428;-72
2023/04/28 07:46:07;;;;;;;37.42;33.85;;;9.10;99.90;;;;;;4977536;28;20746;-72
2023/04/28 07:48:34;;;;;;;38.70;35.30;;;9.10;99.90;;;;;;4987256;28;20046;-72
2023/04/28 07:51:01;;;;;;;36.85;33.60;;;9.20;99.90;;;;;;4983990;28;20038;-72
2023/04/28 07:53:28;;;;;;;39.42;35.67;;;9.10;99.90;;;;;;4983915;28;20041;-72
2023/04/28 07:55:55;;;;;;;39.63;35.95;;;9.10;99.90;;;;;;4979215;28;20479;-72
2023/04/28 07:58:21;;;;;;;39.47;35.95;;;9.30;99.90;;;;;;4978425;28;20587;-72
2023/04/28 08:00:48;;;;;;;39.25;35.90;;;9.30;99.90;;;;;;4974577;28;20141;-72
2023/04/28 08:03:15;;;;;;;40.75;36.95;;;9.30;99.90;;;;;;4979780;28;20393;-75
2023/04/28 08:05:43;;;;;;;41.72;38.08;;;9.30;99.90;;;;;;4976734;28;20523;-72
2023/04/28 08:08:10;;;;;;;43.72;39.60;;;9.50;99.90;;;;;;4985976;28;20487;-73
2023/04/28 08:10:40;;;;;;;39.88;36.42;;;9.60;99.90;;;;;;4985243;28;20039;-71
2023/04/28 08:13:07;;;;;;;40.67;37.13;;;9.50;99.90;;;;;;4975769;28;20202;-72
2023/04/28 08:15:34;;;;;;;40.05;36.50;;;9.50;99.90;;;;;;4979227;28;20038;-74
2023/04/28 08:18:01;;;;;;;40.33;36.88;;;9.50;99.90;;;;;;4963377;28;20265;-73
2023/04/28 08:20:29;;;;;;;41.72;38.08;;;9.70;99.90;;;;;;4988607;28;20065;-73
2023/04/28 08:22:55;;;;;;;42.72;39.08;;;9.70;99.90;;;;;;4984739;28;20038;-73
2023/04/28 08:25:22;;;;;;;39.78;36.60;;;9.70;99.90;;;;;;4978687;28;20564;-74
2023/04/28 08:27:49;;;;;;;38.60;35.13;;;9.50;99.90;;;;;;4975542;28;20073;-74
2023/04/28 08:30:15;;;;;;;38.90;35.28;;;9.50;99.90;;;;;;4988087;28;20046;-74
2023/04/28 08:32:42;;;;;;;37.03;33.72;;;9.50;99.90;;;;;;4987624;28;20045;-74
2023/04/28 08:35:09;;;;;;;38.80;35.42;;;9.60;99.90;;;;;;4981126;28;20057;-73
2023/04/28 08:37:36;;;;;;;38.58;35.15;;;9.80;99.90;;;;;;4957737;28;20046;-73
2023/04/28 08:40:08;;;;;;;37.78;34.60;;;10.00;99.90;;;;;;4974045;28;20049;-73
2023/04/28 08:42:39;;;;;;;40.22;36.42;;;10.30;99.90;;;;;;4964858;28;20053;-73
2023/04/28 08:45:06;;;;;;;38.92;35.45;;;10.50;99.90;;;;;;4981720;28;20041;-73
2023/04/28 08:47:39;;;;;;;39.95;36.83;;;10.70;99.90;;;;;;4972929;28;20117;-74
2023/04/28 08:50:07;;;;;;;41.75;38.03;;;10.90;99.90;;;;;;4982125;28;20096;-73
2023/04/28 08:52:35;;;;;;;41.75;38.33;;;10.90;99.90;;;;;;4985484;28;20152;-74
2023/04/28 08:55:06;;;;;;;39.88;36.83;;;10.80;99.90;;;;;;4983171;28;20508;-73
2023/04/28 08:57:43;;;;;;;42.03;38.10;;;10.80;99.90;;;;;;4985983;28;20061;-73
2023/04/28 09:00:11;;;;;;;40.72;37.08;;;10.70;99.90;;;;;;4976141;28;20058;-74
2023/04/28 09:02:41;;;;;;;41.85;38.15;;;10.80;99.90;;;;;;4984995;28;20522;-73
2023/04/28 09:05:10;;;;;;;40.22;36.88;;;10.70;99.90;;;;;;4980729;28;20169;-74
2023/04/28 09:07:37;;;;;;;38.95;35.85;;;10.60;99.90;;;;;;4981503;28;20404;-74
2023/04/28 09:10:16;;;;;;;42.00;38.47;;;10.60;99.90;;;;;;4968992;28;20039;-74
2023/04/28 09:12:43;;;;;;;42.33;38.38;;;10.50;99.90;;;;;;4979081;28;20050;-74
2023/04/28 09:17:58;;;;;;;38.10;35.03;;;10.60;99.90;;;;;;4928465;28;20542;-75
2023/04/28 09:20:27;;;;;;;41.70;37.97;;;10.50;99.90;;;;;;4941738;28;20070;-75
2023/04/28 09:23:10;;;;;;;41.40;37.90;;;10.50;99.90;;;;;;4949741;28;20039;-76
2023/04/28 09:25:37;;;;;;;39.25;35.63;;;10.60;99.90;;;;;;4954262;28;20047;-75
2023/04/28 09:28:20;;;;;;;38.50;34.80;;;10.60;99.90;;;;;;4936075;28;20043;-76
2023/04/28 09:30:47;;;;;;;39.53;36.15;;;10.40;99.90;;;;;;4950423;28;20119;-75
2023/04/28 09:33:17;;;;;;;40.10;36.83;;;10.30;99.90;;;;;;4935953;28;20043;-76
2023/04/28 09:35:45;;;;;;;39.30;35.75;;;10.30;99.90;;;;;;4934949;28;20044;-75
2023/04/28 09:38:13;;;;;;;40.20;36.28;;;10.40;99.90;;;;;;4936990;28;20481;-76
2023/04/28 09:40:53;;;;;;;38.20;34.47;;;10.30;99.90;;;;;;4919314;29;20036;-75
2023/04/28 09:43:31;;;;;;;37.75;34.05;;;10.20;99.90;;;;;;4938021;28;20118;-76
2023/04/28 09:46:00;;;;;;;33.63;30.23;;;10.00;99.90;;;;;;4935284;28;20070;-76
2023/04/28 09:48:31;;;;;;;34.22;30.73;;;10.10;99.90;;;;;;4936746;28;20054;-76
2023/04/28 09:51:03;;;;;;;35.35;31.70;;;10.10;99.90;;;;;;4935511;28;20035;-75
2023/04/28 09:53:30;;;;;;;33.13;30.02;;;10.10;99.90;;;;;;4941200;28;20085;-76
2023/04/28 09:55:59;;;;;;;33.90;30.90;;;10.10;99.90;;;;;;4937267;28;20031;-75
2023/04/28 09:58:27;;;;;;;36.10;32.45;;;10.00;99.90;;;;;;4937837;28;20053;-76
2023/04/28 10:00:59;;;;;;;35.50;32.20;;;10.20;99.90;;;;;;4947823;28;20448;-76
2023/04/28 10:03:28;;;;;;;34.13;31.02;;;10.30;99.90;;;;;;4921943;28;20039;-75
2023/04/28 10:05:57;;;;;;;35.42;32.30;;;10.40;99.90;;;;;;4935451;28;20097;-75
2023/04/28 10:08:26;;;;;;;35.92;32.70;;;10.50;99.90;;;;;;4937873;28;20098;-76
2023/04/28 10:10:54;;;;;;;32.83;30.02;;;10.60;99.90;;;;;;4920782;28;20031;-76
2023/04/28 10:13:22;;;;;;;33.55;30.73;;;10.80;99.90;;;;;;4934478;28;20382;-76
2023/04/28 10:15:49;;;;;;;34.20;31.23;;;10.80;99.90;;;;;;4937377;28;20043;-75
2023/04/28 10:18:17;;;;;;;33.03;30.17;;;10.90;99.90;;;;;;4948923;28;20078;-75
2023/04/28 10:20:52;;;;;;;37.08;34.03;;;10.90;99.90;;;;;;4932455;28;20047;-75
2023/04/28 10:23:57;;;;;;;38.95;35.83;;;10.90;99.90;;;;;;4950887;28;20489;-76
2023/04/28 10:26:35;;;;;;;38.75;35.63;;;10.90;99.90;;;;;;4943529;28;20435;-75
2023/04/28 10:29:02;;;;;;;36.50;33.70;;;10.90;99.90;;;;;;4949098;28;20044;-76
2023/04/28 10:31:29;;;;;;;39.35;35.78;;;10.90;99.90;;;;;;4930056;28;20188;-75
2023/04/28 10:34:20;;;;;;;40.80;37.55;;;11.10;99.90;;;;;;4951262;28;20051;-76
2023/04/28 10:36:49;;;;;;;40.53;37.15;;;11.20;99.90;;;;;;4938009;28;20035;-76
2023/04/28 10:39:16;;;;;;;40.05;36.92;;;11.20;99.90;;;;;;4950581;28;20603;-75
2023/04/28 10:41:47;;;;;;;39.70;36.50;;;11.10;99.90;;;;;;4936893;28;20051;-75
2023/04/28 10:44:29;;;;;;;39.45;36.25;;;11.10;99.90;;;;;;4934545;28;20141;-75
2023/04/28 10:47:03;;;;;;;42.25;38.28;;;11.10;99.90;;;;;;4951465;28;20055;-76
2023/04/28 10:50:02;;;;;;;39.50;36.42;;;11.10;99.90;;;;;;4933765;28;20559;-75
2023/04/28 10:52:38;;;;;;;39.70;35.92;;;11.10;99.90;;;;;;4936846;28;20049;-76
2023/04/28 10:55:36;;;;;;;40.63;37.38;;;11.00;99.90;;;;;;4947457;28;20627;-74
2023/04/28 10:58:14;;;;;;;38.05;34.95;;;10.90;99.90;;;;;;4934960;28;20635;-76
2023/04/28 11:00:44;;;;;;;40.47;37.03;;;10.90;99.90;;;;;;4949196;28;20041;-77
2023/04/28 11:03:45;;;;;;;38.25;34.55;;;11.00;99.90;;;;;;4948890;28;20043;-76
2023/04/28 11:06:27;;;;;;;37.60;34.53;;;11.10;99.90;;;;;;4950767;28;20335;-75
2023/04/28 11:08:56;;;;;;;40.80;37.22;;;11.10;99.90;;;;;;4957443;28;20047;-76
2023/04/28 11:11:33;;;;;;;40.38;36.97;;;11.20;99.90;;;;;;4955121;28;20134;-75
2023/04/28 11:14:19;;;;;;;42.03;38.38;;;11.40;99.90;;;;;;4939128;28;20251;-75
2023/04/28 11:16:51;;;;;;;;;;;11.60;99.90;;;;;;4937946;28;20227;-76
2023/04/28 11:19:25;;;;;;;40.25;37.00;;;11.70;99.90;;;;;;4939633;28;20446;-75
2023/04/28 11:21:54;;;;;;;40.03;36.53;;;11.60;99.90;;;;;;4936686;28;20054;-75
2023/04/28 11:24:24;;;;;;;40.65;37.25;;;11.60;99.90;;;;;;4940265;28;20066;-76
2023/04/28 11:26:53;;;;;;;42.25;39.08;;;11.50;99.90;;;;;;4939760;28;20158;-75
2023/04/28 11:29:37;;;;;;;42.83;39.40;;;11.70;99.90;;;;;;4938051;28;20043;-75
2023/04/28 11:32:06;;;;;;;46.05;42.17;;;11.90;99.90;;;;;;4945631;28;20268;-76
2023/04/28 11:34:34;;;;;;;45.22;41.75;;;12.00;99.90;;;;;;4940894;28;20073;-76
2023/04/28 11:37:01;;;;;;;42.42;38.90;;;12.10;99.90;;;;;;4954537;28;20043;-76
2023/04/28 11:39:32;;;;;;;38.95;36.00;;;12.10;99.90;;;;;;4949423;28;20075;-76
2023/04/28 11:42:01;;;;;;;40.80;37.22;;;12.00;99.90;;;;;;4937770;28;20082;-77
2023/04/28 11:44:30;;;;;;;40.33;36.88;;;12.20;99.90;;;;;;4936795;28;20126;-76
2023/04/28 11:46:59;;;;;;;42.15;38.88;;;12.40;99.90;;;;;;4940460;28;20106;-74
2023/04/28 11:49:29;;;;;;;41.63;38.22;;;12.40;99.90;;;;;;4940573;28;20039;-75
2023/04/28 11:51:58;;;;;;;39.15;36.15;;;12.40;99.90;;;;;;4942617;28;20101;-75
2023/04/28 11:54:27;;;;;;;42.45;39.17;;;12.50;99.90;;;;;;4941652;28;20043;-75
2023/04/28 11:56:56;;;;;;;41.10;37.67;;;12.60;99.90;;;;;;4957099;28;20137;-75
2023/04/28 11:59:32;;;;;;;42.30;38.78;;;12.70;99.90;;;;;;4937669;28;20047;-76
2023/04/28 12:02:02;;;;;;;41.25;38.13;;;12.90;99.90;;;;;;4940367;28;20043;-75
2023/04/28 12:04:40;;;;;;;42.80;39.70;;;13.00;99.90;;;;;;4951326;28;20129;-76
2023/04/28 12:07:15;;;;;;;48.08;44.28;;;13.40;99.90;;;;;;4937235;28;20075;-76
2023/04/28 12:09:42;;;;;;;;;;;13.50;99.90;;;;;;4955827;28;20043;-75
2023/04/28 12:12:11;;;;;;;47.72;44.05;;;13.40;99.90;;;;;;4955405;28;19926;-76
2023/04/28 12:14:58;;;;;;;46.33;42.35;;;13.40;99.90;;;;;;4938629;28;20633;-75
2023/04/28 12:17:40;;;;;;;46.22;42.75;;;13.60;99.90;;;;;;4952400;28;20051;-75
2023/04/28 12:20:09;;;;;;;45.92;42.13;;;13.60;99.90;;;;;;4940261;28;20129;-76
2023/04/28 12:22:47;;;;;;;42.45;39.35;;;13.60;99.90;;;;;;4955033;28;20047;-75
2023/04/28 12:25:16;;;;;;;42.83;39.83;;;13.80;99.90;;;;;;4950571;28;20504;-76
2023/04/28 12:28:01;;;;;;;41.65;38.47;;;14.00;99.90;;;;;;4937389;28;20585;-76
2023/04/28 12:30:29;;;;;;;46.83;43.35;;;14.30;99.90;;;;;;4951112;28;20127;-76
2023/04/28 12:32:56;;;;;;;46.47;43.17;;;14.30;99.90;;;;;;4939471;28;20236;-75
2023/04/28 12:35:25;;;;;;;46.40;43.22;;;14.40;99.90;;;;;;4951603;28;20049;-76
2023/04/28 12:37:52;;;;;;;47.42;43.83;;;14.80;99.90;;;;;;4940300;28;20031;-76
2023/04/28 12:40:19;;;;;;;47.78;44.10;;;14.80;99.90;;;;;;4933948;28;20047;-76
2023/04/28 12:42:46;;;;;;;51.78;47.63;;;14.70;99.90;;;;;;4938855;28;20040;-75
2023/04/28 12:45:15;;;;;;;51.25;47.53;;;14.20;99.90;;;;;;4937848;28;20062;-75
2023/04/28 12:47:42;;;;;;;49.78;46.08;;;13.90;99.90;;;;;;4939137;28;20505;-76
2023/04/28 12:50:09;;;;;;;49.25;45.53;;;14.00;99.90;;;;;;4934964;28;20098;-76